createdAt,value
2018-06-03T00:00:07.687Z,8.53
2018-06-03T00:02:35.975Z,8.33
2018-06-03T00:05:03.499Z,7.83
2018-06-03T00:07:31.027Z,9.10
2018-06-03T00:09:58.527Z,8.97
2018-06-03T00:12:26.815Z,9.13
2018-06-03T00:14:54.320Z,9.17
2018-06-03T00:17:23.843Z,8.77
2018-06-03T00:19:51.366Z,9.33
2018-06-03T00:22:21.861Z,9.03
2018-06-03T00:24:49.394Z,8.47
2018-06-03T00:27:16.902Z,9.30
2018-06-03T00:29:44.447Z,8.43
2018-06-03T00:32:11.944Z,7.97
2018-06-03T00:34:39.466Z,8.93
2018-06-03T00:37:06.989Z,8.57
2018-06-03T00:39:35.274Z,8.03
2018-06-03T00:42:02.815Z,8.40
2018-06-03T00:44:30.380Z,8.50
2018-06-03T00:46:58.647Z,8.83
2018-06-03T00:49:26.981Z,7.90
2018-06-03T00:51:54.494Z,8.67
2018-06-03T00:54:23.731Z,10.00
2018-06-03T00:57:03.139Z,9.53
2018-06-03T00:59:30.631Z,8.87
2018-06-03T01:01:58.147Z,8.70
2018-06-03T01:04:26.421Z,9.40
2018-06-03T01:06:55.759Z,8.70
2018-06-03T01:09:23.247Z,8.80
2018-06-03T01:11:51.695Z,8.70
2018-06-03T01:14:19.214Z,8.43
2018-06-03T01:16:47.480Z,7.90
2018-06-03T01:19:15.774Z,9.47
2018-06-03T01:21:44.255Z,9.30
2018-06-03T01:24:11.855Z,8.70
2018-06-03T01:26:40.001Z,8.03
2018-06-03T01:29:07.522Z,8.73
2018-06-03T01:31:36.791Z,8.67
2018-06-03T01:34:04.351Z,8.87
2018-06-03T01:36:31.895Z,9.07
2018-06-03T01:38:59.411Z,8.70
2018-06-03T01:41:28.932Z,8.67
2018-06-03T01:43:56.433Z,8.83
2018-06-03T01:46:26.739Z,8.60
2018-06-03T01:48:54.255Z,8.70
2018-06-03T01:51:21.771Z,8.20
2018-06-03T01:53:50.044Z,9.40
2018-06-03T01:56:17.543Z,8.10
2018-06-03T01:58:47.017Z,8.27
2018-06-03T02:01:15.289Z,9.10
2018-06-03T02:03:44.325Z,8.87
2018-06-03T02:06:11.823Z,9.07
2018-06-03T02:08:42.103Z,9.50
2018-06-03T02:11:10.560Z,9.57
2018-06-03T02:13:40.087Z,10.53
2018-06-03T02:16:07.608Z,8.87
2018-06-03T02:18:35.908Z,8.93
2018-06-03T02:21:03.435Z,9.63
2018-06-03T02:23:30.963Z,8.90
2018-06-03T02:25:58.588Z,9.43
2018-06-03T02:28:26.093Z,9.20
2018-06-03T02:30:53.620Z,8.97
2018-06-03T02:33:21.136Z,8.83
2018-06-03T02:35:49.429Z,8.90
2018-06-03T02:38:16.951Z,10.10
2018-06-03T02:40:44.467Z,9.63
2018-06-03T02:43:11.985Z,9.73
2018-06-03T02:45:40.399Z,10.30
2018-06-03T02:48:07.925Z,10.07
2018-06-03T02:50:36.215Z,10.03
2018-06-03T02:53:05.705Z,10.77
2018-06-03T02:55:33.218Z,10.70
2018-06-03T02:58:00.758Z,10.37
2018-06-03T03:00:28.272Z,9.43
2018-06-03T03:02:56.539Z,10.63
2018-06-03T03:05:24.836Z,10.37
2018-06-03T03:07:52.347Z,10.20
2018-06-03T03:10:21.416Z,10.30
2018-06-03T03:12:49.582Z,9.83
2018-06-03T03:15:18.149Z,10.27
2018-06-03T03:17:45.655Z,10.13
2018-06-03T03:20:15.115Z,10.07
2018-06-03T03:22:42.615Z,10.57
2018-06-03T03:25:10.188Z,9.67
2018-06-03T03:27:37.687Z,9.93
2018-06-03T03:30:05.192Z,9.77
2018-06-03T03:32:35.219Z,10.10
2018-06-03T03:35:02.761Z,9.67
2018-06-03T03:37:33.031Z,9.53
2018-06-03T03:40:00.544Z,9.13
2018-06-03T03:42:28.095Z,9.30
2018-06-03T03:44:55.597Z,9.70
2018-06-03T03:47:23.125Z,9.43
2018-06-03T03:49:50.632Z,8.47
2018-06-03T03:52:18.127Z,9.10
2018-06-03T03:54:46.431Z,9.87
2018-06-03T03:57:14.691Z,8.97
2018-06-03T03:59:42.215Z,8.43
2018-06-03T04:02:09.711Z,9.97
2018-06-03T04:04:37.992Z,8.30
2018-06-03T04:07:06.257Z,8.40
2018-06-03T04:09:34.547Z,8.83
2018-06-03T04:12:02.806Z,8.80
2018-06-03T04:14:30.318Z,8.13
2018-06-03T04:16:57.827Z,9.23
2018-06-03T04:19:26.103Z,7.73
2018-06-03T04:21:54.420Z,8.60
2018-06-03T04:24:21.955Z,9.23
2018-06-03T04:26:49.468Z,8.10
2018-06-03T04:29:17.726Z,8.57
2018-06-03T04:31:45.248Z,8.20
2018-06-03T04:34:12.754Z,8.90
2018-06-03T04:36:41.795Z,8.47
2018-06-03T04:39:09.290Z,8.93
2018-06-03T04:41:36.796Z,8.50
2018-06-03T04:44:05.083Z,8.80
2018-06-03T04:46:32.615Z,9.53
2018-06-03T04:49:00.905Z,8.53
2018-06-03T04:51:29.166Z,8.50
2018-06-03T04:53:58.455Z,7.53
2018-06-03T04:56:25.969Z,8.77
2018-06-03T04:58:53.501Z,9.00
2018-06-03T05:01:21.984Z,8.47
2018-06-03T05:03:49.512Z,8.97
2018-06-03T05:06:17.794Z,8.60
2018-06-03T05:08:46.155Z,10.17
2018-06-03T05:11:13.685Z,9.10
2018-06-03T05:13:41.182Z,8.97
2018-06-03T05:16:09.466Z,9.10
2018-06-03T05:18:37.738Z,9.77
2018-06-03T05:21:06.063Z,9.67
2018-06-03T05:23:33.567Z,9.23
2018-06-03T05:26:01.869Z,10.47
2018-06-03T05:28:30.328Z,9.17
2018-06-03T05:30:58.612Z,8.43
2018-06-03T05:33:26.895Z,9.60
2018-06-03T05:35:54.397Z,10.20
2018-06-03T05:38:21.924Z,9.30
2018-06-03T05:40:49.435Z,8.77
2018-06-03T05:43:16.967Z,8.97
2018-06-03T05:45:44.471Z,10.03
2018-06-03T05:48:12.732Z,8.83
2018-06-03T05:50:41.022Z,9.80
2018-06-03T05:53:08.535Z,8.93
2018-06-03T05:55:36.083Z,8.83
2018-06-03T05:58:03.735Z,9.20
2018-06-03T06:00:31.376Z,9.33
2018-06-03T06:02:58.881Z,10.03
2018-06-03T06:05:27.154Z,8.87
2018-06-03T06:07:58.138Z,9.60
2018-06-03T06:10:25.641Z,9.53
2018-06-03T06:12:53.169Z,10.20
2018-06-03T06:15:20.666Z,9.67
2018-06-03T06:17:48.194Z,9.63
2018-06-03T06:20:15.694Z,9.80
2018-06-03T06:22:43.967Z,10.97
2018-06-03T06:25:11.513Z,10.37
2018-06-03T06:27:39.763Z,9.33
2018-06-03T06:30:07.295Z,10.40
2018-06-03T06:32:34.802Z,12.00
2018-06-03T06:35:02.327Z,10.47
2018-06-03T06:37:29.832Z,10.60
2018-06-03T06:39:58.134Z,10.60
2018-06-03T06:42:25.660Z,10.20
2018-06-03T06:44:53.932Z,10.93
2018-06-03T06:47:22.249Z,11.23
2018-06-03T06:49:50.723Z,10.93
2018-06-03T06:52:18.268Z,10.60
2018-06-03T06:54:46.527Z,10.70
2018-06-03T06:57:14.878Z,10.00
2018-06-03T06:59:42.379Z,11.23
2018-06-03T07:02:10.679Z,10.17
2018-06-03T07:04:38.212Z,9.60
2018-06-03T07:07:06.474Z,9.87
2018-06-03T07:09:34.774Z,10.03
2018-06-03T07:12:02.283Z,10.57
2018-06-03T07:14:29.853Z,10.00
2018-06-03T07:16:57.336Z,11.10
2018-06-03T07:19:25.631Z,10.00
2018-06-03T07:21:54.087Z,10.63
2018-06-03T07:24:22.379Z,10.67
2018-06-03T07:26:49.899Z,10.13
2018-06-03T07:29:18.929Z,10.80
2018-06-03T07:31:47.421Z,9.63
2018-06-03T07:34:14.943Z,11.90
2018-06-03T07:36:43.211Z,9.70
2018-06-03T07:39:11.730Z,9.17
2018-06-03T07:41:39.259Z,10.60
2018-06-03T07:44:07.536Z,10.13
2018-06-03T07:46:35.827Z,10.33
2018-06-03T07:49:03.341Z,9.17
2018-06-03T07:51:32.815Z,9.30
2018-06-03T07:54:00.312Z,9.57
2018-06-03T07:56:27.851Z,8.47
2018-06-03T07:58:55.373Z,9.40
2018-06-03T08:01:22.867Z,9.03
2018-06-03T08:03:50.388Z,9.27
2018-06-03T08:06:17.887Z,8.57
2018-06-03T08:08:47.364Z,8.87
2018-06-03T08:11:14.901Z,8.20
2018-06-03T08:13:42.474Z,8.60
2018-06-03T08:16:09.982Z,8.43
2018-06-03T08:18:38.280Z,7.67
2018-06-03T08:21:05.775Z,8.07
2018-06-03T08:23:33.279Z,7.13
2018-06-03T08:26:01.555Z,7.50
2018-06-03T08:28:29.915Z,7.00
2018-06-03T08:30:58.395Z,7.07
2018-06-03T08:33:25.916Z,8.10
2018-06-03T08:35:53.439Z,7.60
2018-06-03T08:38:20.947Z,7.10
2018-06-03T08:40:48.472Z,7.03
2018-06-03T08:43:15.984Z,6.90
2018-06-03T08:45:44.271Z,7.50
2018-06-03T08:48:12.534Z,6.23
2018-06-03T08:50:40.816Z,6.10
2018-06-03T08:53:09.091Z,6.77
2018-06-03T08:55:37.378Z,7.43
2018-06-03T08:58:04.902Z,6.90
2018-06-03T09:00:33.210Z,5.80
2018-06-03T09:03:00.752Z,7.50
2018-06-03T09:05:29.017Z,6.43
2018-06-03T09:07:58.526Z,7.40
2018-06-03T09:10:26.810Z,7.97
2018-06-03T09:12:57.066Z,6.27
2018-06-03T09:15:24.582Z,6.80
2018-06-03T09:17:52.874Z,6.23
2018-06-03T09:20:20.411Z,5.80
2018-06-03T09:22:48.691Z,6.90
2018-06-03T09:25:16.991Z,6.57
2018-06-03T09:27:44.539Z,6.27
2018-06-03T09:30:12.083Z,6.13
2018-06-03T09:32:40.366Z,6.60
2018-06-03T09:35:08.647Z,6.70
2018-06-03T09:37:36.907Z,6.37
2018-06-03T09:40:05.205Z,6.47
2018-06-03T09:42:32.717Z,6.00
2018-06-03T09:45:00.246Z,6.13
2018-06-03T09:47:27.735Z,6.30
2018-06-03T09:49:55.999Z,6.57
2018-06-03T09:52:23.563Z,5.87
2018-06-03T09:54:51.835Z,6.17
2018-06-03T09:57:19.367Z,6.57
2018-06-03T09:59:46.877Z,6.00
2018-06-03T10:02:15.163Z,6.40
2018-06-03T10:04:44.361Z,5.60
2018-06-03T10:07:12.645Z,6.00
2018-06-03T10:09:40.200Z,6.33
2018-06-03T10:12:07.719Z,5.87
2018-06-03T10:14:35.243Z,6.30
2018-06-03T10:17:03.683Z,6.33
2018-06-03T10:19:31.273Z,5.83
2018-06-03T10:21:58.767Z,5.30
2018-06-03T10:24:27.995Z,5.10
2018-06-03T10:26:56.342Z,6.20
2018-06-03T10:29:23.838Z,5.87
2018-06-03T10:31:51.388Z,6.43
2018-06-03T10:34:19.652Z,6.03
2018-06-03T10:36:47.972Z,5.63
2018-06-03T10:39:15.465Z,6.30
2018-06-03T10:41:45.753Z,5.93
2018-06-03T10:44:13.273Z,5.47
2018-06-03T10:46:43.519Z,5.50
2018-06-03T10:49:11.020Z,5.47
2018-06-03T10:51:38.520Z,6.30
2018-06-03T10:54:06.238Z,5.80
2018-06-03T10:56:33.740Z,6.20
2018-06-03T10:59:01.257Z,5.07
2018-06-03T11:01:28.756Z,5.37
2018-06-03T11:03:56.264Z,5.33
2018-06-03T11:06:23.776Z,5.47
2018-06-03T11:08:51.291Z,4.93
2018-06-03T11:11:18.811Z,5.80
2018-06-03T11:13:46.334Z,5.00
2018-06-03T11:16:14.618Z,4.87
2018-06-03T11:18:42.110Z,5.60
2018-06-03T11:21:10.495Z,5.23
2018-06-03T11:23:38.024Z,6.00
2018-06-03T11:26:05.531Z,5.20
2018-06-03T11:28:33.059Z,5.60
2018-06-03T11:31:00.598Z,5.30
2018-06-03T11:33:28.126Z,4.77
2018-06-03T11:35:55.626Z,5.73
2018-06-03T11:38:23.169Z,5.30
2018-06-03T11:40:52.693Z,4.90
2018-06-03T11:43:20.195Z,4.63
2018-06-03T11:45:48.475Z,4.83
2018-06-03T11:48:16.764Z,5.27
2018-06-03T11:50:45.028Z,5.10
2018-06-03T11:53:13.320Z,4.17
2018-06-03T11:55:40.843Z,4.90
2018-06-03T11:58:20.969Z,5.53
2018-06-03T12:00:48.492Z,5.03
2018-06-03T12:03:16.975Z,5.03
2018-06-03T12:05:44.593Z,4.70
2018-06-03T12:08:12.958Z,5.00
2018-06-03T12:10:40.451Z,4.70
2018-06-03T12:13:08.075Z,4.97
2018-06-03T12:15:36.714Z,5.10
2018-06-03T12:18:04.680Z,4.20
2018-06-03T12:20:32.548Z,4.87
2018-06-03T12:23:00.514Z,5.00
2018-06-03T12:25:28.044Z,4.70
2018-06-03T12:27:56.328Z,5.10
2018-06-03T12:30:23.827Z,5.10
2018-06-03T12:32:51.338Z,5.13
2018-06-03T12:35:19.843Z,4.00
2018-06-03T12:37:47.627Z,4.40
2018-06-03T12:40:15.572Z,5.47
2018-06-03T12:42:43.345Z,4.30
2018-06-03T12:45:11.304Z,4.90
2018-06-03T12:47:39.279Z,5.50
2018-06-03T12:50:09.696Z,4.50
2018-06-03T12:52:37.668Z,3.87
2018-06-03T12:55:05.629Z,4.57
2018-06-03T12:57:33.501Z,4.80
2018-06-03T13:00:02.188Z,5.57
2018-06-03T13:02:29.979Z,4.60
2018-06-03T13:04:58.835Z,5.07
2018-06-03T13:07:27.667Z,4.63
2018-06-03T13:09:55.330Z,4.60
2018-06-03T13:12:23.910Z,4.37
2018-06-03T13:14:51.727Z,4.43
2018-06-03T13:17:21.236Z,4.90
2018-06-03T13:19:49.760Z,5.20
2018-06-03T13:22:17.314Z,4.80
2018-06-03T13:24:44.829Z,4.33
2018-06-03T13:27:12.322Z,3.97
2018-06-03T13:29:39.854Z,4.57
2018-06-03T13:32:07.361Z,4.80
2018-06-03T13:34:35.654Z,4.50
2018-06-03T13:37:03.151Z,4.13
2018-06-03T13:39:32.650Z,4.83
2018-06-03T13:42:00.193Z,4.60
2018-06-03T13:44:27.736Z,4.90
2018-06-03T13:46:55.260Z,35.70
2018-06-03T13:49:22.790Z,40.67
2018-06-03T13:51:50.303Z,42.27
2018-06-03T13:54:17.803Z,67.10
2018-06-03T13:56:45.331Z,67.13
2018-06-03T13:59:12.834Z,58.07
2018-06-03T14:01:40.376Z,49.70
2018-06-03T14:04:07.905Z,49.30
2018-06-03T14:06:35.556Z,49.90
2018-06-03T14:09:03.091Z,46.03
2018-06-03T14:12:03.537Z,43.53
2018-06-03T14:14:32.060Z,41.73
2018-06-03T14:17:00.632Z,39.30
2018-06-03T14:19:29.182Z,39.20
2018-06-03T14:21:57.718Z,37.50
2018-06-03T14:24:26.287Z,32.60
2018-06-03T14:26:54.859Z,32.23
2018-06-03T14:29:23.459Z,29.30
2018-06-03T14:31:52.033Z,25.67
2018-06-03T14:34:20.603Z,26.67
2018-06-03T14:36:49.189Z,26.63
2018-06-03T14:39:17.718Z,26.73
2018-06-03T14:41:46.257Z,23.20
2018-06-03T14:44:15.834Z,24.10
2018-06-03T14:46:44.424Z,22.07
2018-06-03T14:49:13.015Z,20.70
2018-06-03T14:51:41.572Z,21.80
2018-06-03T14:54:10.389Z,22.43
2018-06-03T14:56:38.951Z,20.23
2018-06-03T14:59:07.423Z,20.53
2018-06-03T15:01:35.950Z,19.07
2018-06-03T15:04:04.588Z,18.80
2018-06-03T15:06:33.111Z,17.70
2018-06-03T15:09:01.681Z,17.27
2018-06-03T15:11:30.251Z,16.97
2018-06-03T15:13:58.828Z,17.63
2018-06-03T15:16:27.362Z,17.00
2018-06-03T15:18:55.970Z,14.67
2018-06-03T15:21:24.659Z,15.43
2018-06-03T15:23:53.299Z,16.40
2018-06-03T15:26:22.033Z,16.57
2018-06-03T15:28:50.583Z,15.43
2018-06-03T15:31:18.850Z,15.90
2018-06-03T15:33:47.407Z,14.80
2018-06-03T15:36:15.979Z,14.97
2018-06-03T15:38:44.523Z,16.10
2018-06-03T15:41:15.946Z,14.93
2018-06-03T15:43:44.513Z,13.40
2018-06-03T15:46:13.046Z,13.97
2018-06-03T15:48:42.664Z,15.40
2018-06-03T15:51:11.289Z,14.33
2018-06-03T15:53:39.850Z,13.60
2018-06-03T15:56:08.471Z,13.03
2018-06-03T15:58:37.020Z,12.77
2018-06-03T16:01:06.611Z,14.90
2018-06-03T16:03:35.195Z,12.63
2018-06-03T16:06:03.787Z,12.30
2018-06-03T16:08:32.347Z,11.70
2018-06-03T16:11:00.936Z,12.10
2018-06-03T16:13:29.530Z,12.33
2018-06-03T16:15:58.140Z,12.40
2018-06-03T16:18:27.708Z,12.90
2018-06-03T16:20:56.235Z,11.70
2018-06-03T16:23:24.802Z,11.00
2018-06-03T16:25:53.328Z,11.27
2018-06-03T16:28:21.862Z,11.07
2018-06-03T16:30:50.439Z,11.47
2018-06-03T16:33:19.152Z,11.27
2018-06-03T16:35:47.687Z,11.17
2018-06-03T16:38:16.213Z,10.90
2018-06-03T16:40:44.783Z,10.23
2018-06-03T16:43:13.381Z,10.73
2018-06-03T16:45:41.939Z,10.90
2018-06-03T16:48:11.571Z,10.43
2018-06-03T16:50:40.236Z,10.50
2018-06-03T16:53:08.758Z,10.03
2018-06-03T16:55:37.306Z,9.70
2018-06-03T16:58:05.920Z,11.30
2018-06-03T17:00:34.479Z,9.93
2018-06-03T17:03:03.038Z,9.67
2018-06-03T17:05:31.593Z,9.90
2018-06-03T17:08:00.270Z,9.73
2018-06-03T17:10:28.892Z,10.27
2018-06-03T17:12:57.487Z,8.40
2018-06-03T17:15:26.068Z,8.80
2018-06-03T17:17:54.643Z,9.53
2018-06-03T17:20:23.294Z,8.67
2018-06-03T17:22:51.800Z,9.03
2018-06-03T17:25:20.388Z,9.47
2018-06-03T17:27:48.903Z,8.27
2018-06-03T17:30:17.490Z,9.27
2018-06-03T17:32:47.038Z,8.70
2018-06-03T17:35:18.551Z,9.97
2018-06-03T17:37:47.059Z,9.40
2018-06-03T17:40:15.629Z,9.07
2018-06-03T17:42:44.156Z,8.73
2018-06-03T17:45:12.769Z,9.10
2018-06-03T17:47:41.316Z,8.97
2018-06-03T17:50:09.840Z,7.53
2018-06-03T17:52:38.497Z,7.20
2018-06-03T17:55:06.684Z,8.60
2018-06-03T17:57:35.352Z,8.23
2018-06-03T18:00:04.008Z,7.60
2018-06-03T18:02:32.647Z,8.83
2018-06-03T18:05:01.180Z,7.80
2018-06-03T18:07:29.735Z,8.60
2018-06-03T18:09:58.330Z,8.07
2018-06-03T18:12:26.849Z,8.60
2018-06-03T18:14:55.396Z,8.17
2018-06-03T18:17:23.948Z,7.90
2018-06-03T18:19:52.532Z,7.57
2018-06-03T18:22:21.095Z,8.50
2018-06-03T18:24:49.669Z,7.93
2018-06-03T18:27:17.838Z,6.60
2018-06-03T18:29:46.425Z,7.50
2018-06-03T18:32:15.149Z,8.17
2018-06-03T18:34:43.699Z,7.63
2018-06-03T18:37:12.257Z,8.00
2018-06-03T18:39:40.842Z,8.03
2018-06-03T18:42:09.475Z,7.30
2018-06-03T18:44:38.033Z,7.90
2018-06-03T18:47:06.666Z,7.50
2018-06-03T18:49:35.238Z,7.73
2018-06-03T18:52:03.819Z,8.03
2018-06-03T18:54:32.406Z,7.17
2018-06-03T18:57:00.983Z,7.43
2018-06-03T18:59:29.635Z,8.17
2018-06-03T19:01:58.164Z,7.90
2018-06-03T19:04:26.686Z,7.50
2018-06-03T19:06:55.256Z,8.10
2018-06-03T19:09:23.846Z,9.23
2018-06-03T19:11:52.376Z,7.43
2018-06-03T19:14:20.935Z,7.80
2018-06-03T19:16:49.596Z,7.60
2018-06-03T19:19:18.286Z,6.83
2018-06-03T19:21:47.863Z,7.43
2018-06-03T19:24:16.146Z,7.90
2018-06-03T19:26:44.743Z,6.53
2018-06-03T19:29:13.280Z,6.03
2018-06-03T19:31:41.853Z,6.40
2018-06-03T19:34:10.398Z,6.60
2018-06-03T19:36:39.051Z,7.20
2018-06-03T19:39:07.952Z,6.70
2018-06-03T19:41:37.040Z,7.00
2018-06-03T19:44:05.655Z,8.17
2018-06-03T19:46:34.237Z,5.97
2018-06-03T19:49:02.863Z,6.97
2018-06-03T19:51:31.445Z,6.97
2018-06-03T19:54:00.109Z,6.60
2018-06-03T19:56:28.698Z,7.43
2018-06-03T19:58:57.287Z,6.83
2018-06-03T20:01:25.831Z,6.83
2018-06-03T20:03:54.421Z,6.13
2018-06-03T20:06:22.973Z,6.60
2018-06-03T20:08:51.508Z,6.10
2018-06-03T20:11:20.051Z,6.13
2018-06-03T20:13:48.724Z,6.80
2018-06-03T20:16:17.271Z,6.20
2018-06-03T20:18:45.838Z,5.93
2018-06-03T20:21:14.362Z,6.70
2018-06-03T20:23:43.925Z,6.40
2018-06-03T20:26:12.427Z,6.20
2018-06-03T20:28:41.031Z,6.50
2018-06-03T20:31:09.606Z,7.03
2018-06-03T20:33:38.195Z,6.97
2018-06-03T20:36:06.941Z,6.40
2018-06-03T20:38:35.451Z,6.97
2018-06-03T20:41:04.034Z,6.80
2018-06-03T20:43:32.615Z,6.40
2018-06-03T20:46:01.171Z,6.50
2018-06-03T20:48:30.729Z,6.00
2018-06-03T20:50:59.931Z,5.37
2018-06-03T20:53:28.963Z,5.70
2018-06-03T20:55:58.734Z,6.23
2018-06-03T20:58:27.280Z,5.77
2018-06-03T21:00:55.453Z,6.40
2018-06-03T21:03:23.643Z,6.30
2018-06-03T21:05:52.180Z,5.80
2018-06-03T21:08:20.727Z,6.43
2018-06-03T21:10:49.279Z,6.10
2018-06-03T21:13:17.843Z,6.33
2018-06-03T21:15:46.481Z,5.43
2018-06-03T21:18:16.023Z,6.13
2018-06-03T21:20:44.595Z,5.23
2018-06-03T21:23:13.125Z,5.50
2018-06-03T21:25:41.694Z,6.50
2018-06-03T21:28:10.223Z,6.50
2018-06-03T21:30:38.833Z,6.07
2018-06-03T21:33:08.989Z,5.20
2018-06-03T21:35:37.743Z,5.10
2018-06-03T21:38:07.150Z,6.10
2018-06-03T21:40:36.837Z,5.87
2018-06-03T21:43:07.575Z,5.73
2018-06-03T21:45:37.319Z,5.90
2018-06-03T21:48:07.576Z,6.53
2018-06-03T21:50:37.197Z,5.80
2018-06-03T21:53:06.893Z,6.00
2018-06-03T21:55:36.524Z,6.23
2018-06-03T21:58:04.747Z,6.23
2018-06-03T22:00:33.517Z,5.67
2018-06-03T22:03:02.907Z,5.50
2018-06-03T22:05:31.611Z,5.70
2018-06-03T22:08:00.269Z,6.00
2018-06-03T22:10:29.002Z,6.03
2018-06-03T22:12:57.599Z,5.60
2018-06-03T22:15:27.187Z,5.67
2018-06-03T22:17:55.747Z,6.27
2018-06-03T22:20:24.297Z,6.53
2018-06-03T22:22:52.814Z,5.50
2018-06-03T22:25:21.362Z,7.03
2018-06-03T22:27:49.983Z,6.23
2018-06-03T22:30:18.535Z,7.50
2018-06-03T22:32:47.239Z,5.80
2018-06-03T22:35:15.776Z,6.43
2018-06-03T22:37:44.320Z,6.53
2018-06-03T22:40:12.836Z,6.30
2018-06-03T22:42:45.192Z,6.73
2018-06-03T22:45:13.822Z,6.10
2018-06-03T22:47:42.354Z,6.93
2018-06-03T22:50:11.054Z,6.67
2018-06-03T22:52:39.580Z,6.90
2018-06-03T22:55:08.132Z,7.10
2018-06-03T22:57:48.532Z,7.00
2018-06-03T23:00:27.143Z,7.00
2018-06-03T23:03:00.985Z,9.60
2018-06-03T23:05:29.534Z,10.20
2018-06-03T23:07:58.136Z,9.23
2018-06-03T23:10:26.723Z,8.90
2018-06-03T23:12:55.275Z,9.27
2018-06-03T23:15:24.172Z,8.87
2018-06-03T23:17:52.855Z,9.13
2018-06-03T23:20:21.484Z,10.20
2018-06-03T23:22:50.034Z,10.87
2018-06-03T23:25:18.626Z,9.03
2018-06-03T23:27:47.196Z,9.03
2018-06-03T23:30:15.712Z,9.13
2018-06-03T23:32:44.387Z,9.33
2018-06-03T23:35:12.929Z,10.20
2018-06-03T23:37:41.462Z,10.07
2018-06-03T23:40:10.028Z,10.60
2018-06-03T23:42:39.567Z,11.47
2018-06-03T23:45:08.151Z,10.80
2018-06-03T23:47:36.339Z,10.90
2018-06-03T23:50:05.019Z,11.87
2018-06-03T23:52:33.580Z,13.27
2018-06-03T23:55:02.095Z,11.87
2018-06-03T23:57:30.654Z,12.00
2018-06-03T23:59:59.192Z,12.57
